Terminal Aerodrome Forecast
Issued by NWS

Current Version | Previous Version | Text Only | Print | Product List | Glossary Off
Versions: 1 2 3 4 5 6 7 8 9 10 11 12 13 14 15

000
FTUS41 KPBZ 302320
TAFMGW
TAF
KMGW 302320Z 3100/3124 VRB03KT P6SM SKC
     FM310900 00000KT 3SM BR SKC
     FM311200 02003KT P6SM FEW050=

USA.gov is the U.S. government's official web portal to all federal, state and local government web resources and services.